METAR Data
IDs: Format: Raw Decoded Include TAF

Data at: 0222 UTC 24 Oct 2019

METAR for:KOOA (Oskaloosa Muni, IA, US)
Text:KOOA 240215Z AUTO 35008KT 10SM CLR 06/04 A3006 RMK AO2 T00620039
Temperature: 6.2°C ( 43°F)
Dewpoint: 3.9°C ( 39°F) [RH = 85%]
Pressure (altimeter):30.06 inches Hg (1018.0 mb)
Winds:from the N (350 degrees) at 9 MPH (8 knots; 4.1 m/s)
Visibility:10 or more sm (16+ km)
Ceiling:at least 12,000 feet AGL
Clouds:sky clear below 12,000 feet AGL
QC Flag:automated observation with no human augmentation